Terminal Aerodrome Forecast
Issued by NWS

Home | Current Version | Previous Version | Text Only | Print | Product List | Glossary On
Versions: 1 2 3 4 5 6 7 8 9 10 11 12 13 14
000
FTUS44 KLZK 230500 RRA
TAFHOT
TAF
KHOT 230540Z 2306/2406 09005KT P6SM VCSH SCT050 BKN100
      TEMPO 2306/2309 6SM -RA BKN050
     FM231200 12006KT P6SM VCSH BKN050 BKN100
     FM240000 11008KT P6SM VCTS SCT040CB BKN100=

USA.gov is the U.S. government's official web portal to all federal, state and local government web resources and services.